createdAt,value
2018-02-13T00:05:10.890Z,14.68
2018-02-13T00:07:37.506Z,21.33
2018-02-13T00:10:04.860Z,15.40
2018-02-13T00:12:31.078Z,19.45
2018-02-13T00:14:58.062Z,15.98
2018-02-13T00:17:25.500Z,16.37
2018-02-13T00:19:54.301Z,20.58
2018-02-13T00:22:21.408Z,15.98
2018-02-13T00:24:48.753Z,17.50
2018-02-13T00:27:17.959Z,19.20
2018-02-13T00:29:45.382Z,20.35
2018-02-13T00:32:12.191Z,15.13
2018-02-13T00:41:12.552Z,16.98
2018-02-13T00:43:39.348Z,16.35
2018-02-13T00:46:05.797Z,17.67
2018-02-13T00:48:33.742Z,16.15
2018-02-13T00:51:00.474Z,18.48
2018-02-13T00:53:27.304Z,19.37
2018-02-13T00:55:54.367Z,17.98
2018-02-13T00:58:22.042Z,18.35
2018-02-13T01:00:49.997Z,18.17
2018-02-13T01:03:16.735Z,20.62
2018-02-13T01:05:44.871Z,23.45
2018-02-13T01:08:12.743Z,17.92
2018-02-13T01:10:38.963Z,21.30
2018-02-13T01:13:05.870Z,21.02
2018-02-13T01:15:32.914Z,21.00
2018-02-13T01:18:00.079Z,23.80
2018-02-13T01:20:30.223Z,25.70
2018-02-13T01:22:56.447Z,25.92
2018-02-13T01:25:23.764Z,21.55
2018-02-13T01:27:51.266Z,25.55
2018-02-13T01:30:17.816Z,20.23
2018-02-13T01:32:45.613Z,19.60
2018-02-13T01:35:12.575Z,19.17
2018-02-13T01:37:40.126Z,21.15
2018-02-13T01:40:07.684Z,19.85
2018-02-13T01:42:35.037Z,18.05
2018-02-13T01:45:02.136Z,20.85
2018-02-13T01:47:28.916Z,19.85
2018-02-13T01:49:55.186Z,19.27
2018-02-13T01:52:22.292Z,21.05
2018-02-13T01:54:48.659Z,25.00
2018-02-13T01:57:15.506Z,18.85
2018-02-13T01:59:43.139Z,22.40
2018-02-13T02:02:11.690Z,21.73
2018-02-13T02:04:38.420Z,22.58
2018-02-13T02:07:06.174Z,21.65
2018-02-13T02:09:33.090Z,22.27
2018-02-13T02:12:01.030Z,22.05
2018-02-13T02:14:28.022Z,26.52
2018-02-13T02:16:55.073Z,24.23
2018-02-13T02:19:22.174Z,19.60
2018-02-13T02:21:48.955Z,23.70
2018-02-13T02:24:15.181Z,23.15
2018-02-13T02:26:42.934Z,22.17
2018-02-13T02:29:09.136Z,22.52
2018-02-13T02:31:36.446Z,24.55
2018-02-13T02:34:03.475Z,26.90
2018-02-13T02:36:29.734Z,22.70
2018-02-13T02:38:55.925Z,23.10
2018-02-13T02:41:23.188Z,26.45
2018-02-13T02:43:49.629Z,25.30
2018-02-13T02:46:16.820Z,28.62
2018-02-13T02:48:43.224Z,26.00
2018-02-13T02:51:09.774Z,26.50
2018-02-13T02:53:35.996Z,25.17
2018-02-13T02:56:02.985Z,24.20
2018-02-13T02:58:29.883Z,23.75
2018-02-13T03:00:57.316Z,22.98
2018-02-13T03:03:24.011Z,23.30
2018-02-13T03:05:51.388Z,24.27
2018-02-13T03:08:18.976Z,23.42
2018-02-13T03:10:45.716Z,24.55
2018-02-13T03:13:11.946Z,25.42
2018-02-13T03:15:38.350Z,25.02
2018-02-13T03:18:04.571Z,25.05
2018-02-13T03:20:30.787Z,30.65
2018-02-13T03:22:58.874Z,28.38
2018-02-13T03:25:25.226Z,31.87
2018-02-13T03:27:51.946Z,24.52
2018-02-13T03:30:19.347Z,28.08
2018-02-13T03:32:45.554Z,23.92
2018-02-13T03:35:12.394Z,25.98
2018-02-13T03:37:40.714Z,23.10
2018-02-13T03:40:08.184Z,21.98
2018-02-13T03:42:35.678Z,22.95
2018-02-13T03:45:03.677Z,26.15
2018-02-13T03:47:30.919Z,26.15
2018-02-13T03:49:57.410Z,26.98
2018-02-13T03:52:24.494Z,25.08
2018-02-13T03:54:51.652Z,23.70
2018-02-13T03:57:18.822Z,23.42
2018-02-13T03:59:45.036Z,24.63
2018-02-13T04:02:12.245Z,21.05
2018-02-13T04:04:38.889Z,29.27
2018-02-13T04:07:05.576Z,30.27
2018-02-13T04:09:31.919Z,22.48
2018-02-13T04:11:59.279Z,28.08
2018-02-13T04:14:26.534Z,33.47
2018-02-13T04:16:52.915Z,34.90
2018-02-13T04:19:19.127Z,23.92
2018-02-13T04:21:45.562Z,24.92
2018-02-13T04:24:11.755Z,24.60
2018-02-13T04:26:39.453Z,26.85
2018-02-13T04:29:05.781Z,26.12
2018-02-13T04:31:32.971Z,26.05
2018-02-13T04:33:59.980Z,20.05
2018-02-13T04:36:27.299Z,22.77
2018-02-13T04:38:53.555Z,19.92
2018-02-13T04:41:20.866Z,22.67
2018-02-13T04:43:47.351Z,21.52
2018-02-13T04:46:13.850Z,19.75
2018-02-13T04:48:40.942Z,18.58
2018-02-13T04:51:07.809Z,18.77
2018-02-13T04:53:35.051Z,21.45
2018-02-13T04:56:01.280Z,21.92
2018-02-13T04:58:27.804Z,19.65
2018-02-13T05:00:54.881Z,23.00
2018-02-13T05:03:21.097Z,23.00
2018-02-13T05:05:47.312Z,19.98
2018-02-13T05:08:13.703Z,25.37
2018-02-13T05:10:39.942Z,26.08
2018-02-13T05:13:06.381Z,28.55
2018-02-13T05:15:33.202Z,23.87
2018-02-13T05:17:59.467Z,24.65
2018-02-13T05:20:25.734Z,25.35
2018-02-13T05:22:53.466Z,23.42
2018-02-13T05:25:20.245Z,27.15
2018-02-13T05:27:47.812Z,24.15
2018-02-13T05:30:14.090Z,22.50
2018-02-13T05:32:40.354Z,23.55
2018-02-13T05:35:07.368Z,26.00
2018-02-13T05:37:33.931Z,22.20
2018-02-13T05:40:00.279Z,19.95
2018-02-13T05:42:27.218Z,23.67
2018-02-13T05:44:54.810Z,24.75
2018-02-13T05:47:21.034Z,21.08
2018-02-13T05:49:47.581Z,22.17
2018-02-13T05:52:14.580Z,23.77
2018-02-13T05:54:41.575Z,27.42
2018-02-13T05:57:08.768Z,22.25
2018-02-13T05:59:35.654Z,20.85
2018-02-13T06:02:02.895Z,26.08
2018-02-13T06:04:30.619Z,24.23
2018-02-13T06:06:57.511Z,21.08
2018-02-13T06:09:24.862Z,27.77
2018-02-13T06:11:53.038Z,24.27
2018-02-13T06:14:19.402Z,27.35
2018-02-13T06:16:45.858Z,25.35
2018-02-13T06:19:12.081Z,25.80
2018-02-13T06:21:38.859Z,23.52
2018-02-13T06:24:05.670Z,21.23
2018-02-13T06:26:32.430Z,24.55
2018-02-13T06:29:00.235Z,26.98
2018-02-13T06:31:27.251Z,28.35
2018-02-13T06:33:54.205Z,28.15
2018-02-13T06:36:20.784Z,30.02
2018-02-13T06:38:47.860Z,24.85
2018-02-13T06:41:14.190Z,24.80
2018-02-13T06:43:41.746Z,25.88
2018-02-13T06:46:09.326Z,31.15
2018-02-13T06:48:36.934Z,26.35
2018-02-13T06:51:05.138Z,27.13
2018-02-13T06:53:32.354Z,21.83
2018-02-13T06:55:58.627Z,25.08
2018-02-13T06:58:26.428Z,25.15
2018-02-13T07:00:54.883Z,25.02
2018-02-13T07:03:21.201Z,24.12
2018-02-13T07:05:48.571Z,25.52
2018-02-13T07:08:14.884Z,20.80
2018-02-13T07:10:41.573Z,15.93
2018-02-13T07:13:07.895Z,26.80
2018-02-13T07:15:34.139Z,21.27
2018-02-13T07:18:00.848Z,19.55
2018-02-13T07:20:27.152Z,16.75
2018-02-13T07:22:53.402Z,17.73
2018-02-13T07:25:19.632Z,14.10
2018-02-13T07:27:46.438Z,17.40
2018-02-13T07:30:14.259Z,14.45
2018-02-13T07:32:40.553Z,15.70
2018-02-13T07:35:08.342Z,15.15
2018-02-13T07:37:34.586Z,12.98
2018-02-13T07:40:01.288Z,9.60
2018-02-13T07:42:27.602Z,12.60
2018-02-13T07:44:55.035Z,13.50
2018-02-13T07:47:22.701Z,13.25
2018-02-13T07:49:49.143Z,9.98
2018-02-13T08:02:01.176Z,15.27
2018-02-13T08:04:27.710Z,11.07
2018-02-13T08:06:54.009Z,18.58
2018-02-13T08:09:20.552Z,13.95
2018-02-13T08:11:48.303Z,11.07
2018-02-13T08:14:15.766Z,13.57
2018-02-13T08:16:44.248Z,20.62
2018-02-13T08:19:10.705Z,15.32
2018-02-13T08:21:36.970Z,16.17
2018-02-13T08:24:04.502Z,18.33
2018-02-13T08:26:31.972Z,19.70
2018-02-13T08:28:59.960Z,26.35
2018-02-13T08:31:27.030Z,23.67
2018-02-13T08:33:53.908Z,29.05
2018-02-13T08:36:20.476Z,24.33
2018-02-13T08:38:48.506Z,26.90
2018-02-13T08:41:15.550Z,32.58
2018-02-13T08:43:42.026Z,28.45
2018-02-13T08:46:08.875Z,27.37
2018-02-13T08:48:35.912Z,32.80
2018-02-13T08:51:02.935Z,33.63
2018-02-13T08:53:30.307Z,32.60
2018-02-13T08:55:56.905Z,29.58
2018-02-13T08:58:24.389Z,29.17
2018-02-13T09:00:50.769Z,29.35
2018-02-13T09:03:17.025Z,25.20
2018-02-13T09:05:44.311Z,31.52
2018-02-13T09:08:10.696Z,32.05
2018-02-13T09:10:36.970Z,30.37
2018-02-13T09:13:03.345Z,29.40
2018-02-13T09:15:29.614Z,34.53
2018-02-13T09:17:56.186Z,28.55
2018-02-13T09:20:22.931Z,30.80
2018-02-13T09:22:49.314Z,30.37
2018-02-13T09:25:15.614Z,23.17
2018-02-13T09:27:46.655Z,26.17
2018-02-13T09:30:12.987Z,30.00
2018-02-13T09:32:40.354Z,27.45
2018-02-13T09:35:07.255Z,27.65
2018-02-13T09:37:34.062Z,30.83
2018-02-13T09:40:01.456Z,29.45
2018-02-13T09:42:29.041Z,28.92
2018-02-13T09:44:56.561Z,30.67
2018-02-13T09:47:25.330Z,29.73
2018-02-13T09:49:51.919Z,31.45
2018-02-13T09:52:18.518Z,35.25
2018-02-13T09:54:46.636Z,26.62
2018-02-13T09:57:12.969Z,26.80
2018-02-13T09:59:39.836Z,29.95
2018-02-13T10:02:07.314Z,29.75
2018-02-13T10:04:34.176Z,31.15
2018-02-13T10:07:01.171Z,29.25
2018-02-13T10:09:27.417Z,30.98
2018-02-13T10:11:54.196Z,33.65
2018-02-13T10:14:20.726Z,26.35
2018-02-13T10:16:48.574Z,24.92
2018-02-13T10:19:15.710Z,30.23
2018-02-13T10:21:42.967Z,26.85
2018-02-13T10:24:09.292Z,26.60
2018-02-13T10:26:35.551Z,28.42
2018-02-13T10:29:02.496Z,29.65
2018-02-13T10:31:29.765Z,26.05
2018-02-13T10:33:57.701Z,24.83
2018-02-13T10:36:25.196Z,31.90
2018-02-13T10:38:51.453Z,19.77
2018-02-13T10:41:17.977Z,23.08
2018-02-13T10:43:45.221Z,25.15
2018-02-13T10:46:11.435Z,21.77
2018-02-13T10:48:37.673Z,25.50
2018-02-13T10:51:04.434Z,24.17
2018-02-13T10:53:31.264Z,25.40
2018-02-13T10:55:57.752Z,22.75
2018-02-13T10:58:24.739Z,26.75
2018-02-13T11:00:57.217Z,24.52
2018-02-13T11:03:24.374Z,22.85
2018-02-13T11:05:51.119Z,28.00
2018-02-13T11:08:17.865Z,27.33
2018-02-13T11:10:44.050Z,24.37
2018-02-13T11:13:11.011Z,30.75
2018-02-13T11:15:37.595Z,20.65
2018-02-13T11:18:05.506Z,22.33
2018-02-13T11:20:32.134Z,21.33
2018-02-13T11:22:59.083Z,20.25
2018-02-13T11:25:25.832Z,21.98
2018-02-13T11:27:52.208Z,25.80
2018-02-13T11:30:18.588Z,24.12
2018-02-13T11:32:44.815Z,23.73
2018-02-13T11:35:12.051Z,20.35
2018-02-13T11:37:38.995Z,23.55
2018-02-13T11:40:06.960Z,20.83
2018-02-13T11:42:34.152Z,18.05
2018-02-13T11:45:00.974Z,21.12
2018-02-13T11:47:27.761Z,21.73
2018-02-13T11:49:53.976Z,22.65
2018-02-13T11:52:21.895Z,19.92
2018-02-13T11:54:48.365Z,19.20
2018-02-13T11:57:14.603Z,19.83
2018-02-13T11:59:40.826Z,18.20
2018-02-13T12:02:07.598Z,17.80
2018-02-13T12:04:34.782Z,16.58
2018-02-13T12:07:01.773Z,19.25
2018-02-13T12:09:28.423Z,17.75
2018-02-13T13:30:51.143Z,20.55
2018-02-13T13:33:17.698Z,16.92
2018-02-13T13:35:44.121Z,17.92
2018-02-13T13:38:10.803Z,16.58
2018-02-13T13:40:37.078Z,17.77
2018-02-13T13:43:03.840Z,17.67
2018-02-13T13:45:35.000Z,15.35
2018-02-13T13:48:01.260Z,15.70
2018-02-13T13:50:28.665Z,16.37
2018-02-13T13:52:56.158Z,14.87
2018-02-13T13:55:22.816Z,16.27
2018-02-13T13:57:49.859Z,18.80
2018-02-13T14:00:16.923Z,16.52
2018-02-13T14:02:43.099Z,17.12
2018-02-13T14:05:09.473Z,14.27
2018-02-13T14:07:35.707Z,13.62
2018-02-13T14:10:01.992Z,15.88
2018-02-13T14:12:28.226Z,19.27
2018-02-13T14:14:54.447Z,20.33
2018-02-13T14:17:30.640Z,33.80
2018-02-13T14:19:58.427Z,23.45
2018-02-13T14:22:26.087Z,18.67
2018-02-13T14:24:52.530Z,15.77
2018-02-13T14:27:18.784Z,20.23
2018-02-13T14:29:45.524Z,18.55
2018-02-13T14:32:11.841Z,18.02
2018-02-13T14:34:38.611Z,17.85
2018-02-13T14:37:05.578Z,16.52
2018-02-13T14:39:32.769Z,14.07
2018-02-13T14:41:59.133Z,18.15
2018-02-13T14:44:25.661Z,14.50
2018-02-13T14:46:51.915Z,11.20
2018-02-13T14:49:19.302Z,15.15
2018-02-13T14:51:47.229Z,15.48
2018-02-13T14:54:14.966Z,13.35
2018-02-13T14:56:42.100Z,12.80
2018-02-13T14:59:08.507Z,14.75
2018-02-13T15:01:34.747Z,13.05
2018-02-13T15:04:01.004Z,16.67
2018-02-13T15:06:28.232Z,17.23
2018-02-13T15:08:54.887Z,13.25
2018-02-13T15:11:22.290Z,14.52
2018-02-13T15:13:50.181Z,13.27
2018-02-13T15:16:17.451Z,19.62
2018-02-13T15:18:43.705Z,14.63
2018-02-13T15:21:10.106Z,16.33
2018-02-13T15:23:36.367Z,14.82
2018-02-13T15:26:03.241Z,10.70
2018-02-13T15:28:31.096Z,14.68
2018-02-13T15:30:57.933Z,12.90
2018-02-13T15:33:25.839Z,12.80
2018-02-13T15:35:52.123Z,13.55
2018-02-13T15:38:18.452Z,16.33
2018-02-13T15:40:44.903Z,16.70
2018-02-13T15:43:11.866Z,15.45
2018-02-13T15:45:38.220Z,14.90
2018-02-13T15:48:05.022Z,12.43
2018-02-13T15:50:32.524Z,15.13
2018-02-13T15:52:59.655Z,11.20
2018-02-13T15:55:26.260Z,15.48
2018-02-13T15:57:53.673Z,12.75
2018-02-13T16:00:20.797Z,12.95
2018-02-13T16:02:47.208Z,19.62
2018-02-13T16:05:14.219Z,13.90
2018-02-13T16:07:40.455Z,16.85
2018-02-13T16:10:06.829Z,17.52
2018-02-13T16:12:33.329Z,19.15
2018-02-13T16:15:01.514Z,19.30
2018-02-13T16:17:28.527Z,25.02
2018-02-13T16:19:55.101Z,29.63
2018-02-13T16:22:22.464Z,29.12
2018-02-13T16:24:55.337Z,24.50
2018-02-13T16:27:22.726Z,23.90
2018-02-13T16:29:50.234Z,33.10
2018-02-13T16:32:24.405Z,22.73
2018-02-13T16:34:50.733Z,26.75
2018-02-13T16:37:17.152Z,24.42
2018-02-13T16:39:43.368Z,23.67
2018-02-13T16:42:09.601Z,21.35
2018-02-13T16:44:35.824Z,26.20
2018-02-13T16:47:02.128Z,21.75
2018-02-13T16:49:28.368Z,25.00
2018-02-13T16:51:55.590Z,28.25
2018-02-13T16:54:21.866Z,24.17
2018-02-13T16:56:48.176Z,27.27
2018-02-13T16:59:15.249Z,34.63
2018-02-13T17:01:42.083Z,35.65
2018-02-13T17:04:08.896Z,27.05
2018-02-13T17:06:35.418Z,26.42
2018-02-13T17:09:03.599Z,23.38
2018-02-13T17:11:31.197Z,22.70
2018-02-13T17:13:57.544Z,26.55
2018-02-13T17:16:23.811Z,28.65
2018-02-13T17:18:50.274Z,28.58
2018-02-13T17:21:17.192Z,26.75
2018-02-13T17:23:43.756Z,28.33
2018-02-13T17:26:11.156Z,24.55
2018-02-13T17:28:38.461Z,24.60
2018-02-13T17:31:05.246Z,24.02
2018-02-13T17:33:32.255Z,22.80
2018-02-13T17:35:58.532Z,21.95
2018-02-13T17:38:37.229Z,24.20
2018-02-13T17:41:03.775Z,22.42
2018-02-13T17:43:30.159Z,25.45
2018-02-13T17:45:57.213Z,20.17
2018-02-13T17:48:23.762Z,20.80
2018-02-13T17:50:50.152Z,32.45
2018-02-13T17:53:17.160Z,30.42
2018-02-13T17:55:43.866Z,28.60
2018-02-13T17:58:10.799Z,31.42
2018-02-13T18:00:37.195Z,31.70
2018-02-13T18:03:03.493Z,24.23
2018-02-13T18:05:30.244Z,28.23
2018-02-13T18:07:56.499Z,22.20
2018-02-13T18:10:24.838Z,23.25
2018-02-13T18:12:51.089Z,24.10
2018-02-13T18:15:18.066Z,26.20
2018-02-13T18:17:44.856Z,27.10
2018-02-13T18:20:11.372Z,32.60
2018-02-13T18:22:38.524Z,33.95
2018-02-13T18:25:04.833Z,22.67
2018-02-13T18:27:32.003Z,23.08
2018-02-13T18:29:58.612Z,19.23
2018-02-13T18:32:27.035Z,26.30
2018-02-13T18:34:54.309Z,26.73
2018-02-13T18:37:21.148Z,26.67
2018-02-13T18:39:48.084Z,22.58
2018-02-13T18:42:14.388Z,24.17
2018-02-13T18:44:41.588Z,25.73
2018-02-13T18:47:08.656Z,20.88
2018-02-13T18:49:35.642Z,25.05
2018-02-13T18:52:02.934Z,34.85
2018-02-13T18:54:30.185Z,29.10
2018-02-13T18:56:56.951Z,25.83
2018-02-13T18:59:24.354Z,50.92
2018-02-13T19:01:50.921Z,30.15
2018-02-13T19:04:17.835Z,25.02
2018-02-13T19:06:45.448Z,18.00
2018-02-13T19:09:13.843Z,17.33
2018-02-13T19:11:51.712Z,18.92
2018-02-13T19:57:54.919Z,16.42
2018-02-13T20:00:22.326Z,20.73
2018-02-13T21:02:30.161Z,41.58
2018-02-13T21:07:49.142Z,14.05
2018-02-13T21:10:19.460Z,15.80
2018-02-13T21:12:47.469Z,13.10
2018-02-13T21:15:14.776Z,14.07
2018-02-13T21:20:41.604Z,13.57
2018-02-13T21:23:09.052Z,11.77
2018-02-13T21:25:37.105Z,13.23
2018-02-13T21:28:12.018Z,11.77
2018-02-13T21:30:39.427Z,12.27
2018-02-13T21:33:27.971Z,11.77
2018-02-13T21:35:56.674Z,11.12
